sensor_id;sensor_type;location;lat;lon;timestamp;temperature;humidity
16172;DHT22;8192;53.596;10.166;2022-08-19T00:01:12;18.50;99.90
16172;DHT22;8192;53.596;10.166;2022-08-19T00:03:39;18.60;99.90
16172;DHT22;8192;53.596;10.166;2022-08-19T00:09:01;18.60;99.90
16172;DHT22;8192;53.596;10.166;2022-08-19T00:11:29;18.60;99.90
16172;DHT22;8192;53.596;10.166;2022-08-19T00:13:59;18.60;99.90
16172;DHT22;8192;53.596;10.166;2022-08-19T00:16:26;18.50;99.90
16172;DHT22;8192;53.596;10.166;2022-08-19T00:18:52;18.50;99.90
16172;DHT22;8192;53.596;10.166;2022-08-19T00:21:20;18.50;99.90
16172;DHT22;8192;53.596;10.166;2022-08-19T00:23:47;18.40;99.90
16172;DHT22;8192;53.596;10.166;2022-08-19T00:26:14;18.40;99.90
16172;DHT22;8192;53.596;10.166;2022-08-19T00:28:41;18.40;99.90
16172;DHT22;8192;53.596;10.166;2022-08-19T00:31:10;18.50;99.90
16172;DHT22;8192;53.596;10.166;2022-08-19T00:33:37;18.50;99.90
16172;DHT22;8192;53.596;10.166;2022-08-19T00:36:04;18.50;99.90
16172;DHT22;8192;53.596;10.166;2022-08-19T00:38:32;18.50;99.90
16172;DHT22;8192;53.596;10.166;2022-08-19T00:40:59;18.60;99.90
16172;DHT22;8192;53.596;10.166;2022-08-19T00:43:26;18.60;99.90
16172;DHT22;8192;53.596;10.166;2022-08-19T00:45:53;18.60;99.90
16172;DHT22;8192;53.596;10.166;2022-08-19T00:48:21;18.60;99.90
16172;DHT22;8192;53.596;10.166;2022-08-19T00:50:49;18.60;99.90
16172;DHT22;8192;53.596;10.166;2022-08-19T00:53:19;18.60;99.90
16172;DHT22;8192;53.596;10.166;2022-08-19T00:55:46;18.60;99.90
16172;DHT22;8192;53.596;10.166;2022-08-19T00:58:15;18.60;99.90
16172;DHT22;8192;53.596;10.166;2022-08-19T01:00:42;18.60;99.90
16172;DHT22;8192;53.596;10.166;2022-08-19T01:03:13;18.60;99.90
16172;DHT22;8192;53.596;10.166;2022-08-19T01:05:43;18.60;99.90
16172;DHT22;8192;53.596;10.166;2022-08-19T01:08:10;18.60;99.90
16172;DHT22;8192;53.596;10.166;2022-08-19T01:10:40;18.60;99.90
16172;DHT22;8192;53.596;10.166;2022-08-19T01:13:08;18.60;99.90
16172;DHT22;8192;53.596;10.166;2022-08-19T01:15:45;18.60;99.90
16172;DHT22;8192;53.596;10.166;2022-08-19T01:18:13;18.60;99.90
16172;DHT22;8192;53.596;10.166;2022-08-19T01:20:42;18.60;99.90
16172;DHT22;8192;53.596;10.166;2022-08-19T01:23:10;18.60;99.90
16172;DHT22;8192;53.596;10.166;2022-08-19T01:25:39;18.60;99.90
16172;DHT22;8192;53.596;10.166;2022-08-19T01:28:07;18.60;99.90
16172;DHT22;8192;53.596;10.166;2022-08-19T01:30:35;18.60;99.90
16172;DHT22;8192;53.596;10.166;2022-08-19T01:33:02;18.60;99.90
16172;DHT22;8192;53.596;10.166;2022-08-19T01:35:30;18.60;99.90
16172;DHT22;8192;53.596;10.166;2022-08-19T01:37:59;18.60;99.90
16172;DHT22;8192;53.596;10.166;2022-08-19T01:40:29;18.60;99.90
16172;DHT22;8192;53.596;10.166;2022-08-19T01:42:56;18.60;99.90
16172;DHT22;8192;53.596;10.166;2022-08-19T01:45:24;18.60;99.90
16172;DHT22;8192;53.596;10.166;2022-08-19T01:47:52;18.60;99.90
16172;DHT22;8192;53.596;10.166;2022-08-19T01:50:19;18.60;99.90
16172;DHT22;8192;53.596;10.166;2022-08-19T01:52:45;18.50;99.90
16172;DHT22;8192;53.596;10.166;2022-08-19T01:55:13;18.50;99.90
16172;DHT22;8192;53.596;10.166;2022-08-19T01:57:43;18.50;99.90
16172;DHT22;8192;53.596;10.166;2022-08-19T02:00:11;18.50;99.90
16172;DHT22;8192;53.596;10.166;2022-08-19T02:02:39;18.50;99.90
16172;DHT22;8192;53.596;10.166;2022-08-19T02:05:06;18.50;99.90
16172;DHT22;8192;53.596;10.166;2022-08-19T02:07:33;18.50;99.90
16172;DHT22;8192;53.596;10.166;2022-08-19T02:10:01;18.40;99.90
16172;DHT22;8192;53.596;10.166;2022-08-19T02:12:28;18.40;99.90
16172;DHT22;8192;53.596;10.166;2022-08-19T02:14:57;18.40;99.90
16172;DHT22;8192;53.596;10.166;2022-08-19T02:17:25;18.30;99.90
16172;DHT22;8192;53.596;10.166;2022-08-19T02:19:51;18.40;99.90
16172;DHT22;8192;53.596;10.166;2022-08-19T02:22:18;18.40;99.90
16172;DHT22;8192;53.596;10.166;2022-08-19T02:24:45;18.40;99.90
16172;DHT22;8192;53.596;10.166;2022-08-19T02:27:13;18.40;99.90
16172;DHT22;8192;53.596;10.166;2022-08-19T02:29:39;18.30;99.90
16172;DHT22;8192;53.596;10.166;2022-08-19T02:32:08;18.30;99.90
16172;DHT22;8192;53.596;10.166;2022-08-19T02:34:35;18.30;99.90
16172;DHT22;8192;53.596;10.166;2022-08-19T02:37:02;18.30;99.90
16172;DHT22;8192;53.596;10.166;2022-08-19T02:39:28;18.30;99.90
16172;DHT22;8192;53.596;10.166;2022-08-19T02:41:54;18.30;99.90
16172;DHT22;8192;53.596;10.166;2022-08-19T02:44:21;18.30;99.90
16172;DHT22;8192;53.596;10.166;2022-08-19T02:46:48;18.20;99.90
16172;DHT22;8192;53.596;10.166;2022-08-19T02:49:17;18.30;99.90
16172;DHT22;8192;53.596;10.166;2022-08-19T02:51:44;18.30;99.90
16172;DHT22;8192;53.596;10.166;2022-08-19T02:54:11;18.20;99.90
16172;DHT22;8192;53.596;10.166;2022-08-19T02:56:40;18.20;99.90
16172;DHT22;8192;53.596;10.166;2022-08-19T02:59:07;18.20;99.90
16172;DHT22;8192;53.596;10.166;2022-08-19T03:01:37;18.20;99.90
16172;DHT22;8192;53.596;10.166;2022-08-19T03:04:05;18.20;99.90
16172;DHT22;8192;53.596;10.166;2022-08-19T03:06:35;18.20;99.90
16172;DHT22;8192;53.596;10.166;2022-08-19T03:09:02;18.20;99.90
16172;DHT22;8192;53.596;10.166;2022-08-19T03:11:29;18.20;99.90
16172;DHT22;8192;53.596;10.166;2022-08-19T03:13:56;18.20;99.90
16172;DHT22;8192;53.596;10.166;2022-08-19T03:16:24;18.20;99.90
16172;DHT22;8192;53.596;10.166;2022-08-19T03:18:52;18.20;99.90
16172;DHT22;8192;53.596;10.166;2022-08-19T03:21:21;18.20;99.90
16172;DHT22;8192;53.596;10.166;2022-08-19T03:23:53;18.10;99.90
16172;DHT22;8192;53.596;10.166;2022-08-19T03:26:20;18.10;99.90
16172;DHT22;8192;53.596;10.166;2022-08-19T03:28:47;18.10;99.90
16172;DHT22;8192;53.596;10.166;2022-08-19T03:31:15;18.10;99.90
16172;DHT22;8192;53.596;10.166;2022-08-19T03:33:43;18.20;99.90
16172;DHT22;8192;53.596;10.166;2022-08-19T03:36:11;18.20;99.90
16172;DHT22;8192;53.596;10.166;2022-08-19T03:38:38;18.20;99.90
16172;DHT22;8192;53.596;10.166;2022-08-19T03:41:08;18.20;99.90
16172;DHT22;8192;53.596;10.166;2022-08-19T03:43:35;18.20;99.90
16172;DHT22;8192;53.596;10.166;2022-08-19T03:46:03;18.10;99.90
16172;DHT22;8192;53.596;10.166;2022-08-19T03:48:31;18.10;99.90
16172;DHT22;8192;53.596;10.166;2022-08-19T03:50:58;18.20;99.90
16172;DHT22;8192;53.596;10.166;2022-08-19T03:53:25;18.10;99.90
16172;DHT22;8192;53.596;10.166;2022-08-19T03:55:53;18.10;99.90
16172;DHT22;8192;53.596;10.166;2022-08-19T03:58:21;18.10;99.90
16172;DHT22;8192;53.596;10.166;2022-08-19T04:00:48;18.10;99.90
16172;DHT22;8192;53.596;10.166;2022-08-19T04:03:15;18.20;99.90
16172;DHT22;8192;53.596;10.166;2022-08-19T04:05:44;18.20;99.90
16172;DHT22;8192;53.596;10.166;2022-08-19T04:08:10;18.20;99.90
16172;DHT22;8192;53.596;10.166;2022-08-19T04:10:38;18.10;99.90
16172;DHT22;8192;53.596;10.166;2022-08-19T04:13:05;18.20;99.90
16172;DHT22;8192;53.596;10.166;2022-08-19T04:15:38;18.10;99.90
16172;DHT22;8192;53.596;10.166;2022-08-19T04:18:07;18.20;99.90
16172;DHT22;8192;53.596;10.166;2022-08-19T04:20:38;18.10;99.90
16172;DHT22;8192;53.596;10.166;2022-08-19T04:23:05;18.10;99.90
16172;DHT22;8192;53.596;10.166;2022-08-19T04:25:34;18.10;99.90
16172;DHT22;8192;53.596;10.166;2022-08-19T04:28:01;18.10;99.90
16172;DHT22;8192;53.596;10.166;2022-08-19T04:30:27;18.20;99.90
16172;DHT22;8192;53.596;10.166;2022-08-19T04:32:56;18.20;99.90
16172;DHT22;8192;53.596;10.166;2022-08-19T04:35:22;18.20;99.90
16172;DHT22;8192;53.596;10.166;2022-08-19T04:37:49;18.20;99.90
16172;DHT22;8192;53.596;10.166;2022-08-19T04:40:16;18.20;99.90
16172;DHT22;8192;53.596;10.166;2022-08-19T04:43:00;18.20;99.90
16172;DHT22;8192;53.596;10.166;2022-08-19T04:45:27;18.30;99.90
16172;DHT22;8192;53.596;10.166;2022-08-19T04:47:55;18.30;99.90
16172;DHT22;8192;53.596;10.166;2022-08-19T04:50:22;18.30;99.90
16172;DHT22;8192;53.596;10.166;2022-08-19T04:52:50;18.30;99.90
16172;DHT22;8192;53.596;10.166;2022-08-19T04:55:17;18.30;99.90
16172;DHT22;8192;53.596;10.166;2022-08-19T04:57:44;18.30;99.90
16172;DHT22;8192;53.596;10.166;2022-08-19T05:00:11;18.20;99.90
16172;DHT22;8192;53.596;10.166;2022-08-19T05:02:39;18.20;99.90
16172;DHT22;8192;53.596;10.166;2022-08-19T05:05:07;18.10;99.90
16172;DHT22;8192;53.596;10.166;2022-08-19T05:07:34;18.20;99.90
16172;DHT22;8192;53.596;10.166;2022-08-19T05:10:02;18.20;99.90
16172;DHT22;8192;53.596;10.166;2022-08-19T05:12:29;18.20;99.90
16172;DHT22;8192;53.596;10.166;2022-08-19T05:14:56;18.30;99.90
16172;DHT22;8192;53.596;10.166;2022-08-19T05:17:23;18.30;99.90
16172;DHT22;8192;53.596;10.166;2022-08-19T05:19:50;18.30;99.90
16172;DHT22;8192;53.596;10.166;2022-08-19T05:22:36;18.30;99.90
16172;DHT22;8192;53.596;10.166;2022-08-19T05:25:06;18.40;99.90
16172;DHT22;8192;53.596;10.166;2022-08-19T05:27:34;18.30;99.90
16172;DHT22;8192;53.596;10.166;2022-08-19T05:30:00;18.30;99.90
16172;DHT22;8192;53.596;10.166;2022-08-19T05:32:28;18.30;99.90
16172;DHT22;8192;53.596;10.166;2022-08-19T05:34:55;18.30;99.90
16172;DHT22;8192;53.596;10.166;2022-08-19T05:37:22;18.30;99.90
16172;DHT22;8192;53.596;10.166;2022-08-19T05:42:38;18.30;99.90
16172;DHT22;8192;53.596;10.166;2022-08-19T05:45:05;18.30;99.90
16172;DHT22;8192;53.596;10.166;2022-08-19T05:47:33;18.20;99.90
16172;DHT22;8192;53.596;10.166;2022-08-19T05:50:00;18.20;99.90
16172;DHT22;8192;53.596;10.166;2022-08-19T05:52:31;18.20;99.90
16172;DHT22;8192;53.596;10.166;2022-08-19T05:55:01;18.20;99.90
16172;DHT22;8192;53.596;10.166;2022-08-19T05:57:28;18.20;99.90
16172;DHT22;8192;53.596;10.166;2022-08-19T06:05:25;18.20;99.90
16172;DHT22;8192;53.596;10.166;2022-08-19T06:10:43;18.20;99.90
16172;DHT22;8192;53.596;10.166;2022-08-19T06:13:10;18.30;99.90
16172;DHT22;8192;53.596;10.166;2022-08-19T06:15:37;18.30;99.90
16172;DHT22;8192;53.596;10.166;2022-08-19T06:18:11;18.40;99.90
16172;DHT22;8192;53.596;10.166;2022-08-19T06:20:40;18.50;99.90
16172;DHT22;8192;53.596;10.166;2022-08-19T06:23:07;18.40;99.90
16172;DHT22;8192;53.596;10.166;2022-08-19T06:25:34;18.50;99.90
16172;DHT22;8192;53.596;10.166;2022-08-19T06:28:04;18.60;99.90
16172;DHT22;8192;53.596;10.166;2022-08-19T06:30:31;18.60;99.90
16172;DHT22;8192;53.596;10.166;2022-08-19T06:32:58;18.60;99.90
16172;DHT22;8192;53.596;10.166;2022-08-19T06:35:24;18.50;99.90
16172;DHT22;8192;53.596;10.166;2022-08-19T06:41:00;18.60;99.90
16172;DHT22;8192;53.596;10.166;2022-08-19T06:43:28;18.70;99.90
16172;DHT22;8192;53.596;10.166;2022-08-19T06:45:54;18.70;99.90
16172;DHT22;8192;53.596;10.166;2022-08-19T06:48:22;18.70;99.90
16172;DHT22;8192;53.596;10.166;2022-08-19T06:50:48;18.70;99.90
16172;DHT22;8192;53.596;10.166;2022-08-19T06:53:16;18.70;99.90
16172;DHT22;8192;53.596;10.166;2022-08-19T06:55:44;18.70;99.90
16172;DHT22;8192;53.596;10.166;2022-08-19T06:58:13;18.70;99.90
16172;DHT22;8192;53.596;10.166;2022-08-19T07:00:40;18.70;99.90
16172;DHT22;8192;53.596;10.166;2022-08-19T07:03:11;18.60;99.90
16172;DHT22;8192;53.596;10.166;2022-08-19T07:05:39;18.60;99.90
16172;DHT22;8192;53.596;10.166;2022-08-19T07:08:06;18.60;99.90
16172;DHT22;8192;53.596;10.166;2022-08-19T07:10:34;18.60;99.90
16172;DHT22;8192;53.596;10.166;2022-08-19T07:19:07;18.80;99.90
16172;DHT22;8192;53.596;10.166;2022-08-19T07:21:34;18.90;99.90
16172;DHT22;8192;53.596;10.166;2022-08-19T07:24:02;19.00;99.90
16172;DHT22;8192;53.596;10.166;2022-08-19T07:26:30;19.10;99.90
16172;DHT22;8192;53.596;10.166;2022-08-19T07:32:01;19.30;99.90
16172;DHT22;8192;53.596;10.166;2022-08-19T07:34:40;19.30;99.90
16172;DHT22;8192;53.596;10.166;2022-08-19T07:37:07;19.30;99.90
16172;DHT22;8192;53.596;10.166;2022-08-19T07:39:34;19.10;99.90
16172;DHT22;8192;53.596;10.166;2022-08-19T07:42:05;19.30;99.90
16172;DHT22;8192;53.596;10.166;2022-08-19T07:44:34;19.40;99.90
16172;DHT22;8192;53.596;10.166;2022-08-19T07:47:01;19.40;99.90
16172;DHT22;8192;53.596;10.166;2022-08-19T07:49:27;19.50;99.90
16172;DHT22;8192;53.596;10.166;2022-08-19T07:51:57;19.50;99.90
16172;DHT22;8192;53.596;10.166;2022-08-19T07:54:25;19.50;99.90
16172;DHT22;8192;53.596;10.166;2022-08-19T07:56:52;19.40;99.90
16172;DHT22;8192;53.596;10.166;2022-08-19T07:59:19;19.30;99.90
16172;DHT22;8192;53.596;10.166;2022-08-19T08:01:46;19.40;99.90
16172;DHT22;8192;53.596;10.166;2022-08-19T08:04:13;19.20;99.90
16172;DHT22;8192;53.596;10.166;2022-08-19T08:06:59;19.20;99.90
16172;DHT22;8192;53.596;10.166;2022-08-19T08:09:44;19.30;99.90
16172;DHT22;8192;53.596;10.166;2022-08-19T08:12:12;19.30;99.90
16172;DHT22;8192;53.596;10.166;2022-08-19T08:14:41;19.40;99.90
16172;DHT22;8192;53.596;10.166;2022-08-19T08:17:09;19.30;99.90
16172;DHT22;8192;53.596;10.166;2022-08-19T08:19:36;19.40;99.90
16172;DHT22;8192;53.596;10.166;2022-08-19T08:22:05;19.40;99.90
16172;DHT22;8192;53.596;10.166;2022-08-19T08:27:35;19.70;99.90
16172;DHT22;8192;53.596;10.166;2022-08-19T08:30:05;19.60;99.90
16172;DHT22;8192;53.596;10.166;2022-08-19T08:32:35;19.50;99.90
16172;DHT22;8192;53.596;10.166;2022-08-19T08:35:02;19.50;99.90
16172;DHT22;8192;53.596;10.166;2022-08-19T08:37:31;19.60;99.90
16172;DHT22;8192;53.596;10.166;2022-08-19T08:39:58;19.70;99.90
16172;DHT22;8192;53.596;10.166;2022-08-19T08:42:27;19.70;99.90
16172;DHT22;8192;53.596;10.166;2022-08-19T08:44:58;19.70;99.90
16172;DHT22;8192;53.596;10.166;2022-08-19T08:47:25;19.70;99.90
16172;DHT22;8192;53.596;10.166;2022-08-19T08:49:53;19.50;99.90
16172;DHT22;8192;53.596;10.166;2022-08-19T08:52:21;19.60;99.90
16172;DHT22;8192;53.596;10.166;2022-08-19T08:54:51;19.60;99.90
16172;DHT22;8192;53.596;10.166;2022-08-19T09:00:18;19.70;99.90
16172;DHT22;8192;53.596;10.166;2022-08-19T09:02:45;19.70;99.90
16172;DHT22;8192;53.596;10.166;2022-08-19T09:05:13;19.70;99.90
16172;DHT22;8192;53.596;10.166;2022-08-19T09:07:41;19.70;99.90
16172;DHT22;8192;53.596;10.166;2022-08-19T09:10:21;19.60;99.90
16172;DHT22;8192;53.596;10.166;2022-08-19T09:12:52;19.50;99.90
16172;DHT22;8192;53.596;10.166;2022-08-19T09:15:25;19.40;99.90
16172;DHT22;8192;53.596;10.166;2022-08-19T09:17:58;19.40;99.90
16172;DHT22;8192;53.596;10.166;2022-08-19T09:20:27;19.50;99.90
16172;DHT22;8192;53.596;10.166;2022-08-19T09:22:54;19.60;99.90
16172;DHT22;8192;53.596;10.166;2022-08-19T09:25:22;19.70;99.90
16172;DHT22;8192;53.596;10.166;2022-08-19T09:27:50;19.70;99.90
16172;DHT22;8192;53.596;10.166;2022-08-19T09:30:20;19.80;99.90
16172;DHT22;8192;53.596;10.166;2022-08-19T09:36:00;19.80;99.90
16172;DHT22;8192;53.596;10.166;2022-08-19T09:38:28;19.90;99.90
16172;DHT22;8192;53.596;10.166;2022-08-19T09:41:01;20.10;99.90
16172;DHT22;8192;53.596;10.166;2022-08-19T09:43:27;20.10;99.90
16172;DHT22;8192;53.596;10.166;2022-08-19T09:48:43;20.10;99.90
16172;DHT22;8192;53.596;10.166;2022-08-19T09:51:14;20.20;99.90
16172;DHT22;8192;53.596;10.166;2022-08-19T09:53:42;20.20;99.90
16172;DHT22;8192;53.596;10.166;2022-08-19T09:59:14;20.20;99.90
16172;DHT22;8192;53.596;10.166;2022-08-19T10:01:41;20.20;99.90
16172;DHT22;8192;53.596;10.166;2022-08-19T10:04:08;20.10;99.90
16172;DHT22;8192;53.596;10.166;2022-08-19T10:06:36;20.10;99.90
16172;DHT22;8192;53.596;10.166;2022-08-19T10:09:05;20.10;99.90
16172;DHT22;8192;53.596;10.166;2022-08-19T10:11:33;20.10;99.90
16172;DHT22;8192;53.596;10.166;2022-08-19T10:14:00;20.10;99.90
16172;DHT22;8192;53.596;10.166;2022-08-19T10:19:32;20.10;99.90
16172;DHT22;8192;53.596;10.166;2022-08-19T10:22:04;20.10;99.90
16172;DHT22;8192;53.596;10.166;2022-08-19T10:24:32;20.20;99.90
16172;DHT22;8192;53.596;10.166;2022-08-19T10:26:59;20.10;99.90
16172;DHT22;8192;53.596;10.166;2022-08-19T10:29:28;20.10;99.90
16172;DHT22;8192;53.596;10.166;2022-08-19T10:31:55;20.10;99.90
16172;DHT22;8192;53.596;10.166;2022-08-19T10:34:23;20.20;99.90
16172;DHT22;8192;53.596;10.166;2022-08-19T10:36:51;20.30;99.90
16172;DHT22;8192;53.596;10.166;2022-08-19T10:39:18;20.40;99.90
16172;DHT22;8192;53.596;10.166;2022-08-19T10:41:46;20.40;99.90
16172;DHT22;8192;53.596;10.166;2022-08-19T10:44:13;20.50;99.90
16172;DHT22;8192;53.596;10.166;2022-08-19T10:46:41;20.50;99.90
16172;DHT22;8192;53.596;10.166;2022-08-19T10:52:14;20.90;99.90
16172;DHT22;8192;53.596;10.166;2022-08-19T10:54:58;20.90;99.90
16172;DHT22;8192;53.596;10.166;2022-08-19T11:00:57;21.00;99.90
16172;DHT22;8192;53.596;10.166;2022-08-19T11:03:26;21.00;99.90
16172;DHT22;8192;53.596;10.166;2022-08-19T11:08:42;21.00;99.90
16172;DHT22;8192;53.596;10.166;2022-08-19T11:11:10;20.90;99.90
16172;DHT22;8192;53.596;10.166;2022-08-19T11:13:37;21.00;99.90
16172;DHT22;8192;53.596;10.166;2022-08-19T11:16:06;21.00;99.90
16172;DHT22;8192;53.596;10.166;2022-08-19T11:18:34;21.10;99.90
16172;DHT22;8192;53.596;10.166;2022-08-19T11:21:06;21.00;99.90
16172;DHT22;8192;53.596;10.166;2022-08-19T11:23:33;21.00;99.90
16172;DHT22;8192;53.596;10.166;2022-08-19T11:26:02;20.90;99.90
16172;DHT22;8192;53.596;10.166;2022-08-19T11:28:30;20.90;99.90
16172;DHT22;8192;53.596;10.166;2022-08-19T11:30:56;21.00;99.90
16172;DHT22;8192;53.596;10.166;2022-08-19T11:33:23;20.80;99.90
16172;DHT22;8192;53.596;10.166;2022-08-19T11:35:52;20.90;99.90
16172;DHT22;8192;53.596;10.166;2022-08-19T11:38:19;20.90;99.90
16172;DHT22;8192;53.596;10.166;2022-08-19T11:40:53;20.90;99.90
16172;DHT22;8192;53.596;10.166;2022-08-19T11:43:22;21.00;99.90
16172;DHT22;8192;53.596;10.166;2022-08-19T11:45:52;21.20;99.90
16172;DHT22;8192;53.596;10.166;2022-08-19T11:48:19;21.40;99.90
16172;DHT22;8192;53.596;10.166;2022-08-19T11:50:47;21.40;99.90
16172;DHT22;8192;53.596;10.166;2022-08-19T11:53:16;21.50;99.90
16172;DHT22;8192;53.596;10.166;2022-08-19T11:55:45;21.50;99.90
16172;DHT22;8192;53.596;10.166;2022-08-19T12:01:18;21.70;99.90
16172;DHT22;8192;53.596;10.166;2022-08-19T12:03:47;21.90;99.90
16172;DHT22;8192;53.596;10.166;2022-08-19T12:06:15;22.10;99.90
16172;DHT22;8192;53.596;10.166;2022-08-19T12:08:44;22.00;99.90
16172;DHT22;8192;53.596;10.166;2022-08-19T12:11:15;22.20;99.90
16172;DHT22;8192;53.596;10.166;2022-08-19T12:16:50;22.40;99.90
16172;DHT22;8192;53.596;10.166;2022-08-19T12:19:18;22.40;99.90
16172;DHT22;8192;53.596;10.166;2022-08-19T12:21:46;22.30;99.90
16172;DHT22;8192;53.596;10.166;2022-08-19T12:24:13;22.50;99.90
16172;DHT22;8192;53.596;10.166;2022-08-19T12:29:51;22.50;99.90
16172;DHT22;8192;53.596;10.166;2022-08-19T12:32:19;22.40;99.90
16172;DHT22;8192;53.596;10.166;2022-08-19T12:34:47;22.50;99.90
16172;DHT22;8192;53.596;10.166;2022-08-19T12:37:16;22.80;99.90
16172;DHT22;8192;53.596;10.166;2022-08-19T12:39:44;22.60;99.90
16172;DHT22;8192;53.596;10.166;2022-08-19T12:42:12;22.40;99.90
16172;DHT22;8192;53.596;10.166;2022-08-19T12:44:40;22.30;99.90
16172;DHT22;8192;53.596;10.166;2022-08-19T12:47:10;22.40;99.90
16172;DHT22;8192;53.596;10.166;2022-08-19T12:49:49;22.60;99.90
16172;DHT22;8192;53.596;10.166;2022-08-19T12:52:22;23.00;99.90
16172;DHT22;8192;53.596;10.166;2022-08-19T12:54:50;23.50;99.90
16172;DHT22;8192;53.596;10.166;2022-08-19T12:57:17;24.00;99.90
16172;DHT22;8192;53.596;10.166;2022-08-19T12:59:45;24.10;99.90
16172;DHT22;8192;53.596;10.166;2022-08-19T13:05:19;25.10;99.90
16172;DHT22;8192;53.596;10.166;2022-08-19T13:07:48;24.80;99.90
16172;DHT22;8192;53.596;10.166;2022-08-19T13:10:21;24.50;99.90
16172;DHT22;8192;53.596;10.166;2022-08-19T13:12:50;24.10;99.90
16172;DHT22;8192;53.596;10.166;2022-08-19T13:15:20;24.00;99.90
16172;DHT22;8192;53.596;10.166;2022-08-19T13:17:48;23.90;99.90
16172;DHT22;8192;53.596;10.166;2022-08-19T13:26:15;24.00;99.90
16172;DHT22;8192;53.596;10.166;2022-08-19T13:28:50;23.90;99.90
16172;DHT22;8192;53.596;10.166;2022-08-19T13:31:35;23.90;99.90
16172;DHT22;8192;53.596;10.166;2022-08-19T13:34:25;24.10;99.90
16172;DHT22;8192;53.596;10.166;2022-08-19T13:37:06;24.70;99.90
16172;DHT22;8192;53.596;10.166;2022-08-19T13:39:36;24.50;99.90
16172;DHT22;8192;53.596;10.166;2022-08-19T13:42:06;24.80;99.90
16172;DHT22;8192;53.596;10.166;2022-08-19T13:44:33;25.20;99.90
16172;DHT22;8192;53.596;10.166;2022-08-19T13:47:01;25.30;99.90
16172;DHT22;8192;53.596;10.166;2022-08-19T13:49:42;25.20;99.90
16172;DHT22;8192;53.596;10.166;2022-08-19T13:52:11;25.50;99.90
16172;DHT22;8192;53.596;10.166;2022-08-19T13:54:39;25.40;99.90
16172;DHT22;8192;53.596;10.166;2022-08-19T13:57:13;25.60;99.90
16172;DHT22;8192;53.596;10.166;2022-08-19T13:59:40;25.40;99.90
16172;DHT22;8192;53.596;10.166;2022-08-19T14:02:07;25.10;99.90
16172;DHT22;8192;53.596;10.166;2022-08-19T14:04:36;24.90;99.90
16172;DHT22;8192;53.596;10.166;2022-08-19T14:07:04;24.70;99.90
16172;DHT22;8192;53.596;10.166;2022-08-19T14:12:20;24.10;99.90
16172;DHT22;8192;53.596;10.166;2022-08-19T14:14:47;24.00;99.90
16172;DHT22;8192;53.596;10.166;2022-08-19T14:17:18;23.70;99.90
16172;DHT22;8192;53.596;10.166;2022-08-19T14:19:59;23.50;99.90
16172;DHT22;8192;53.596;10.166;2022-08-19T14:22:31;23.40;99.90
16172;DHT22;8192;53.596;10.166;2022-08-19T14:25:13;23.30;99.90
16172;DHT22;8192;53.596;10.166;2022-08-19T14:27:46;23.60;99.90
16172;DHT22;8192;53.596;10.166;2022-08-19T14:30:16;23.50;99.90
16172;DHT22;8192;53.596;10.166;2022-08-19T14:32:44;23.50;99.90
16172;DHT22;8192;53.596;10.166;2022-08-19T14:35:17;23.50;99.90
16172;DHT22;8192;53.596;10.166;2022-08-19T14:37:45;23.80;99.90
16172;DHT22;8192;53.596;10.166;2022-08-19T14:40:12;23.70;99.90
16172;DHT22;8192;53.596;10.166;2022-08-19T14:51:47;23.20;99.90
16172;DHT22;8192;53.596;10.166;2022-08-19T14:54:15;23.30;99.90
16172;DHT22;8192;53.596;10.166;2022-08-19T14:56:43;23.20;99.90
16172;DHT22;8192;53.596;10.166;2022-08-19T14:59:11;23.10;99.90
16172;DHT22;8192;53.596;10.166;2022-08-19T15:01:38;23.20;99.90
16172;DHT22;8192;53.596;10.166;2022-08-19T15:04:05;23.20;99.90
16172;DHT22;8192;53.596;10.166;2022-08-19T15:06:41;23.20;99.90
16172;DHT22;8192;53.596;10.166;2022-08-19T15:09:08;23.00;99.90
16172;DHT22;8192;53.596;10.166;2022-08-19T15:11:35;23.10;99.90
16172;DHT22;8192;53.596;10.166;2022-08-19T15:14:03;23.00;99.90
16172;DHT22;8192;53.596;10.166;2022-08-19T15:16:32;23.10;99.90
16172;DHT22;8192;53.596;10.166;2022-08-19T15:18:59;23.10;99.90
16172;DHT22;8192;53.596;10.166;2022-08-19T15:21:29;23.10;99.90
16172;DHT22;8192;53.596;10.166;2022-08-19T15:23:58;23.30;99.90
16172;DHT22;8192;53.596;10.166;2022-08-19T15:26:26;23.40;99.90
16172;DHT22;8192;53.596;10.166;2022-08-19T15:28:57;23.40;99.90
16172;DHT22;8192;53.596;10.166;2022-08-19T15:31:24;23.20;99.90
16172;DHT22;8192;53.596;10.166;2022-08-19T15:33:59;23.10;99.90
16172;DHT22;8192;53.596;10.166;2022-08-19T15:36:31;23.20;99.90
16172;DHT22;8192;53.596;10.166;2022-08-19T15:41:47;23.50;99.90
16172;DHT22;8192;53.596;10.166;2022-08-19T15:44:16;23.50;99.90
16172;DHT22;8192;53.596;10.166;2022-08-19T15:46:44;23.70;99.90
16172;DHT22;8192;53.596;10.166;2022-08-19T15:49:15;23.90;99.90
16172;DHT22;8192;53.596;10.166;2022-08-19T15:51:49;23.60;99.90
16172;DHT22;8192;53.596;10.166;2022-08-19T15:54:19;23.30;99.90
16172;DHT22;8192;53.596;10.166;2022-08-19T15:56:50;23.30;99.90
16172;DHT22;8192;53.596;10.166;2022-08-19T15:59:35;23.10;99.90
16172;DHT22;8192;53.596;10.166;2022-08-19T16:02:20;23.00;99.90
16172;DHT22;8192;53.596;10.166;2022-08-19T16:05:06;22.80;99.90
16172;DHT22;8192;53.596;10.166;2022-08-19T16:08:05;22.70;99.90
16172;DHT22;8192;53.596;10.166;2022-08-19T16:10:38;22.50;99.90
16172;DHT22;8192;53.596;10.166;2022-08-19T16:13:07;22.50;99.90
16172;DHT22;8192;53.596;10.166;2022-08-19T16:15:35;22.50;99.90
16172;DHT22;8192;53.596;10.166;2022-08-19T16:18:06;22.50;99.90
16172;DHT22;8192;53.596;10.166;2022-08-19T16:20:33;22.50;99.90
16172;DHT22;8192;53.596;10.166;2022-08-19T16:23:01;22.60;99.90
16172;DHT22;8192;53.596;10.166;2022-08-19T16:25:29;22.50;99.90
16172;DHT22;8192;53.596;10.166;2022-08-19T16:27:58;22.60;99.90
16172;DHT22;8192;53.596;10.166;2022-08-19T16:30:27;22.80;99.90
16172;DHT22;8192;53.596;10.166;2022-08-19T16:32:54;23.00;99.90
16172;DHT22;8192;53.596;10.166;2022-08-19T16:35:22;23.00;99.90
16172;DHT22;8192;53.596;10.166;2022-08-19T16:37:50;23.10;99.90
16172;DHT22;8192;53.596;10.166;2022-08-19T16:43:21;23.30;99.90
16172;DHT22;8192;53.596;10.166;2022-08-19T16:45:50;23.20;99.90
16172;DHT22;8192;53.596;10.166;2022-08-19T16:48:18;23.10;99.90
16172;DHT22;8192;53.596;10.166;2022-08-19T16:50:45;22.90;99.90
16172;DHT22;8192;53.596;10.166;2022-08-19T16:53:12;22.80;99.90
16172;DHT22;8192;53.596;10.166;2022-08-19T16:55:40;22.70;99.90
16172;DHT22;8192;53.596;10.166;2022-08-19T16:58:07;22.70;99.90
16172;DHT22;8192;53.596;10.166;2022-08-19T17:00:33;22.70;99.90
16172;DHT22;8192;53.596;10.166;2022-08-19T17:03:05;22.50;99.90
16172;DHT22;8192;53.596;10.166;2022-08-19T17:05:34;22.50;99.90
16172;DHT22;8192;53.596;10.166;2022-08-19T17:08:00;22.60;99.90
16172;DHT22;8192;53.596;10.166;2022-08-19T17:10:27;22.50;99.90